»·PEaware :: N149CD KVNY-KHND

N149CD :: KVNY-KHND

FLIGHT INFORMATION

Flight Status: Arrived
Operator: Privately registered:
United States
More flights under this callsign
Pilot: Nathan E. (30132)
Aircraft: CIRRUS VISIONJET
(SF50)
More flights by this aircraft type
Origin: KVNY Van Nuys
United States
Destination: KHND Henderson
United States
More flights between these airports :: More routes between these airports
Route: NUAL1 DAG V587 BLD
File this flight plan on PilotEdge
Remarks:
Altitude:
(Current/Filed)
11,000ft
Speed:
(Current/Filed)
305kts
Departed: 16-Dec-20 10:13 AM
Arrived: 16-Dec-20 11:03 AM
Distance/Time
Traveled:
195nm/0:50
Distance/Time
To Go:
Arrived

Flight Plot

Page will automatically refresh every two minutes.

Flight plan parsing failed; only flown route is shown


Map Options




Map Legend


Flown Route
Filed Route
Departure Airport
Arrival Airport
Navaid (VOR, NDB)
Fix

Horizontal Profiles

Position Reports

Time Latitude Longitude Heading Altitude Ground
Speed
16-Dec-20 09:44 34.208083 -118.491775 90 805ft 0kts
16-Dec-20 09:45 34.208083 -118.491775 90 805ft 0kts
16-Dec-20 09:47 34.208083 -118.491775 90 805ft 0kts
16-Dec-20 09:48 34.208083 -118.491775 90 805ft 0kts
16-Dec-20 09:49 34.208083 -118.491775 90 805ft 0kts
16-Dec-20 09:50 34.208083 -118.491775 90 805ft 0kts
16-Dec-20 09:51 34.208083 -118.491775 90 805ft 0kts
16-Dec-20 09:52 34.208083 -118.491775 90 805ft 0kts
16-Dec-20 09:53 34.208083 -118.491775 90 805ft 0kts
16-Dec-20 09:54 34.208083 -118.491775 90 805ft 0kts
16-Dec-20 09:55 34.208083 -118.491775 90 805ft 0kts
16-Dec-20 09:56 34.208083 -118.491775 90 805ft 0kts
16-Dec-20 09:57 34.208083 -118.491775 90 805ft 0kts
16-Dec-20 09:58 34.208083 -118.491775 90 805ft 0kts
16-Dec-20 09:59 34.208083 -118.491775 90 805ft 0kts
16-Dec-20 10:00 34.208083 -118.491775 90 805ft 0kts
16-Dec-20 10:01 34.208083 -118.491775 90 805ft 0kts
16-Dec-20 10:02 34.208083 -118.491775 90 805ft 0kts
16-Dec-20 10:02 34.208083 -118.491775 90 805ft 0kts
16-Dec-20 10:04 34.208083 -118.491775 90 805ft 0kts
16-Dec-20 10:05 34.208083 -118.491775 90 805ft 0kts
16-Dec-20 10:06 34.208083 -118.491775 90 805ft 0kts
16-Dec-20 10:06 34.208083 -118.491775 90 805ft 0kts
16-Dec-20 10:07 34.208188 -118.491511 32 805ft 6kts
16-Dec-20 10:08 34.212185 -118.491766 355 805ft 17kts
16-Dec-20 10:09 34.217666 -118.492293 356 805ft 21kts
16-Dec-20 10:10 34.219334 -118.492175 98 805ft 0kts
16-Dec-20 10:11 34.219334 -118.492175 98 805ft 0kts
16-Dec-20 10:12 34.212384 -118.490598 175 810ft 110kts
16-Dec-20 10:13 34.173351 -118.481824 128 1625ft 148kts
16-Dec-20 10:14 34.150414 -118.441436 122 2552ft 158kts
16-Dec-20 10:15 34.129238 -118.392381 94 4557ft 173kts
16-Dec-20 10:16 34.161558 -118.363684 344 5907ft 190kts
16-Dec-20 10:17 34.203976 -118.384899 341 9585ft 169kts
16-Dec-20 10:18 34.253603 -118.405793 340 11014ft 242kts
16-Dec-20 10:19 34.324840 -118.435876 340 11015ft 281kts
16-Dec-20 10:20 34.399943 -118.431376 49 11049ft 312kts
16-Dec-20 10:21 34.454044 -118.347406 51 10947ft 321kts
16-Dec-20 10:23 34.516938 -118.247168 50 10964ft 319kts
16-Dec-20 10:23 34.561698 -118.175551 50 10980ft 320kts
16-Dec-20 10:24 34.615426 -118.089465 50 10981ft 320kts
16-Dec-20 10:25 34.639874 -117.986067 81 10980ft 328kts
16-Dec-20 10:26 34.651844 -117.876509 80 10977ft 328kts
16-Dec-20 10:27 34.663920 -117.766804 76 10967ft 326kts
16-Dec-20 10:28 34.690050 -117.662197 69 10960ft 323kts
16-Dec-20 10:29 34.716704 -117.558424 69 10953ft 321kts
16-Dec-20 10:30 34.743176 -117.454731 69 10953ft 320kts
16-Dec-20 10:31 34.769426 -117.351334 69 10953ft 320kts
16-Dec-20 10:32 34.795930 -117.246535 70 10956ft 328kts
16-Dec-20 10:33 34.822698 -117.140233 70 10962ft 329kts
16-Dec-20 10:34 34.849442 -117.033655 70 10968ft 328kts
16-Dec-20 10:35 34.875995 -116.927373 70 10971ft 328kts
16-Dec-20 10:36 34.902472 -116.820908 70 10971ft 328kts
16-Dec-20 10:37 34.928801 -116.714632 70 10971ft 328kts
16-Dec-20 10:38 34.955131 -116.607914 70 10980ft 328kts
16-Dec-20 10:39 34.993554 -116.508808 57 10981ft 323kts
16-Dec-20 10:40 35.036115 -116.412589 57 10980ft 322kts
16-Dec-20 10:41 35.078583 -116.316571 58 10978ft 321kts
16-Dec-20 10:42 35.121001 -116.220486 58 10983ft 321kts
16-Dec-20 10:43 35.163322 -116.124393 58 10983ft 321kts
16-Dec-20 10:44 35.205734 -116.027809 58 10983ft 321kts
16-Dec-20 10:45 35.247630 -115.932118 58 10983ft 321kts
16-Dec-20 10:46 35.289715 -115.835695 58 10999ft 323kts
16-Dec-20 10:47 35.340891 -115.746705 46 11012ft 320kts
16-Dec-20 10:48 35.401103 -115.666308 43 11019ft 321kts
16-Dec-20 10:49 35.460893 -115.586522 43 10951ft 295kts
16-Dec-20 10:50 35.514690 -115.514556 43 10449ft 282kts
16-Dec-20 10:51 35.567577 -115.443551 44 10019ft 282kts
16-Dec-20 10:52 35.620359 -115.372254 46 9779ft 282kts
16-Dec-20 10:53 35.671016 -115.298218 47 9275ft 282kts
16-Dec-20 10:54 35.716824 -115.227047 56 8375ft 220kts
16-Dec-20 10:55 35.745370 -115.171084 55 7351ft 182kts
16-Dec-20 10:56 35.781730 -115.137631 3 6354ft 171kts
16-Dec-20 10:57 35.827377 -115.136433 357 5898ft 141kts
16-Dec-20 10:58 35.873200 -115.136366 357 5579ft 168kts
16-Dec-20 10:59 35.906870 -115.136113 357 4299ft 95kts
16-Dec-20 11:00 35.932165 -115.136035 357 3414ft 89kts
16-Dec-20 11:01 35.954355 -115.135670 358 2748ft 77kts
16-Dec-20 11:02 35.970693 -115.135471 348 2444ft 16kts
16-Dec-20 11:03 35.970458 -115.136976 180 2442ft 10kts
16-Dec-20 11:04 35.968410 -115.137920 178 2449ft 4kts
16-Dec-20 11:05 35.968385 -115.137919 180 2449ft 0kts

Navigation Log

Ident Type
Flight plan parsing failed, navigation log unavailable